Time,TemperatureF,DewpointF,PressureIn,WindDirection,WindDirectionDegrees,WindSpeedMPH,WindSpeedGustMPH,Humidity,HourlyPrecipIn,Conditions,Clouds,dailyrainin,SolarRadiationWatts/m^2,SoftwareType,DateUTC
2013-07-14 00:04:00,58.7,55.2,29.74,West,264,8.0,11.0,88,0.00,,,0.00,0,Wunderground v.1.15,2013-07-14 06:04:00,
2013-07-14 00:10:00,58.7,55.2,29.74,West,264,5.0,8.0,88,0.00,,,0.00,0,Wunderground v.1.15,2013-07-14 06:10:00,
2013-07-14 00:16:00,58.7,55.2,29.74,West,264,4.0,8.0,88,0.00,,,0.00,0,Wunderground v.1.15,2013-07-14 06:16:00,
2013-07-14 00:23:00,58.7,55.2,29.74,West,264,5.0,8.0,88,0.00,,,0.00,0,Wunderground v.1.15,2013-07-14 06:23:00,
2013-07-14 00:29:00,58.7,54.8,29.73,West,264,0.0,8.0,87,0.00,,,0.00,0,Wunderground v.1.15,2013-07-14 06:29:00,
2013-07-14 00:34:00,58.7,54.8,29.73,West,264,6.0,8.0,87,0.00,,,0.00,0,Wunderground v.1.15,2013-07-14 06:34:00,
2013-07-14 00:40:00,58.7,54.8,29.73,West,264,0.0,6.0,87,0.00,,,0.00,0,Wunderground v.1.15,2013-07-14 06:40:00,
2013-07-14 00:46:00,58.7,54.8,29.73,West,264,7.0,7.0,87,0.00,,,0.00,0,Wunderground v.1.15,2013-07-14 06:46:00,
2013-07-14 00:51:00,58.7,54.5,29.73,West,264,7.0,8.0,86,0.00,,,0.00,0,Wunderground v.1.15,2013-07-14 06:51:00,
2013-07-14 00:57:00,58.7,54.5,29.73,West,264,7.0,9.0,86,0.00,,,0.00,0,Wunderground v.1.15,2013-07-14 06:57:00,
2013-07-14 01:03:00,58.9,54.7,29.73,West,264,5.0,8.0,86,0.00,,,0.00,0,Wunderground v.1.15,2013-07-14 07:03:00,
2013-07-14 01:09:00,58.9,55.0,29.73,West,264,3.0,8.0,87,0.00,,,0.00,0,Wunderground v.1.15,2013-07-14 07:09:00,
2013-07-14 01:16:00,58.9,55.0,29.73,West,264,2.0,6.0,87,0.00,,,0.00,0,Wunderground v.1.15,2013-07-14 07:16:00,
2013-07-14 01:23:00,58.9,55.0,29.73,West,264,0.0,2.0,87,0.00,,,0.00,0,Wunderground v.1.15,2013-07-14 07:23:00,
2013-07-14 01:29:00,58.7,54.8,29.73,West,264,0.0,2.0,87,0.00,,,0.00,0,Wunderground v.1.15,2013-07-14 07:29:00,
2013-07-14 01:34:00,58.7,54.8,29.73,West,264,0.0,0.0,87,0.00,,,0.00,0,Wunderground v.1.15,2013-07-14 07:34:00,
2013-07-14 01:39:00,58.7,54.8,29.73,West,264,0.0,0.0,87,0.00,,,0.00,0,Wunderground v.1.15,2013-07-14 07:39:00,
2013-07-14 01:46:00,58.6,54.7,29.73,West,264,0.0,0.0,87,0.00,,,0.00,0,Wunderground v.1.15,2013-07-14 07:46:00,
2013-07-14 01:53:00,58.4,54.5,29.73,West,264,0.0,0.0,87,0.00,,,0.00,0,Wunderground v.1.15,2013-07-14 07:53:00,
2013-07-14 01:58:00,58.3,54.4,29.73,West,264,0.0,0.0,87,0.00,,,0.00,0,Wunderground v.1.15,2013-07-14 07:58:00,
2013-07-14 02:03:00,58.3,54.4,29.72,West,264,0.0,0.0,87,0.00,,,0.00,0,Wunderground v.1.15,2013-07-14 08:03:00,
2013-07-14 02:08:00,58.3,54.4,29.72,West,264,0.0,0.0,87,0.00,,,0.00,0,Wunderground v.1.15,2013-07-14 08:08:00,
2013-07-14 02:13:00,58.3,54.4,29.72,West,264,0.0,0.0,87,0.00,,,0.00,0,Wunderground v.1.15,2013-07-14 08:13:00,
2013-07-14 02:18:00,58.3,54.4,29.71,West,264,0.0,0.0,87,0.00,,,0.00,0,Wunderground v.1.15,2013-07-14 08:18:00,
2013-07-14 02:24:00,58.3,54.4,29.71,West,264,0.0,0.0,87,0.00,,,0.00,0,Wunderground v.1.15,2013-07-14 08:24:00,
2013-07-14 02:29:00,58.1,54.6,29.71,West,264,0.0,0.0,88,0.00,,,0.00,0,Wunderground v.1.15,2013-07-14 08:29:00,
2013-07-14 02:34:00,58.1,54.6,29.71,West,264,0.0,0.0,88,0.00,,,0.00,0,Wunderground v.1.15,2013-07-14 08:34:00,
2013-07-14 02:39:00,58.1,54.6,29.71,West,264,0.0,0.0,88,0.00,,,0.00,0,Wunderground v.1.15,2013-07-14 08:39:00,
2013-07-14 02:43:00,58.1,54.6,29.71,West,264,0.0,0.0,88,0.00,,,0.00,0,Wunderground v.1.15,2013-07-14 08:43:00,
2013-07-14 02:48:00,58.0,54.5,29.71,West,264,0.0,0.0,88,0.00,,,0.00,0,Wunderground v.1.15,2013-07-14 08:48:00,
2013-07-14 02:53:00,57.8,54.3,29.71,West,264,0.0,8.0,88,0.00,,,0.00,0,Wunderground v.1.15,2013-07-14 08:53:00,
2013-07-14 02:58:00,57.6,54.1,29.71,West,264,0.0,8.0,88,0.00,,,0.00,0,Wunderground v.1.15,2013-07-14 08:58:00,
2013-07-14 03:03:00,57.6,54.4,29.71,West,264,0.0,1.0,89,0.00,,,0.00,0,Wunderground v.1.15,2013-07-14 09:03:00,
2013-07-14 03:08:00,57.6,54.4,29.71,West,264,6.0,8.0,89,0.00,,,0.00,0,Wunderground v.1.15,2013-07-14 09:08:00,
2013-07-14 03:14:00,57.6,54.4,29.71,West,264,6.0,7.0,89,0.00,,,0.00,0,Wunderground v.1.15,2013-07-14 09:14:00,
2013-07-14 03:19:00,57.6,54.4,29.71,West,264,5.0,7.0,89,0.00,,,0.00,0,Wunderground v.1.15,2013-07-14 09:19:00,
2013-07-14 03:24:00,57.5,54.3,29.71,West,264,3.0,5.0,89,0.00,,,0.00,0,Wunderground v.1.15,2013-07-14 09:24:00,
2013-07-14 03:29:00,57.5,54.3,29.71,West,265,2.0,5.0,89,0.00,,,0.00,0,Wunderground v.1.15,2013-07-14 09:29:00,
2013-07-14 03:34:00,57.5,54.3,29.71,West,265,0.0,3.0,89,0.00,,,0.00,0,Wunderground v.1.15,2013-07-14 09:34:00,
2013-07-14 03:39:00,57.5,54.3,29.71,West,265,2.0,5.0,89,0.00,,,0.00,0,Wunderground v.1.15,2013-07-14 09:39:00,
2013-07-14 03:44:00,57.5,54.3,29.71,West,265,1.0,4.0,89,0.00,,,0.00,0,Wunderground v.1.15,2013-07-14 09:44:00,
2013-07-14 03:49:00,57.3,54.1,29.71,West,266,5.0,5.0,89,0.00,,,0.00,0,Wunderground v.1.15,2013-07-14 09:49:00,
2013-07-14 03:54:00,57.3,54.1,29.71,West,267,7.0,9.0,89,0.00,,,0.00,0,Wunderground v.1.15,2013-07-14 09:54:00,
2013-07-14 03:59:00,57.2,54.0,29.72,West,267,7.0,9.0,89,0.00,,,0.00,0,Wunderground v.1.15,2013-07-14 09:59:00,
2013-07-14 04:04:00,57.0,53.8,29.72,West,267,4.0,7.0,89,0.00,,,0.00,0,Wunderground v.1.15,2013-07-14 10:04:00,
2013-07-14 04:09:00,57.0,53.8,29.72,West,267,6.0,7.0,89,0.00,,,0.00,0,Wunderground v.1.15,2013-07-14 10:09:00,
2013-07-14 04:14:00,56.9,53.7,29.72,West,267,7.0,7.0,89,0.00,,,0.00,0,Wunderground v.1.15,2013-07-14 10:14:00,
2013-07-14 04:19:00,56.7,53.5,29.72,West,267,5.0,7.0,89,0.00,,,0.00,0,Wunderground v.1.15,2013-07-14 10:19:00,
2013-07-14 04:24:00,56.6,53.4,29.72,West,267,6.0,7.0,89,0.00,,,0.00,0,Wunderground v.1.15,2013-07-14 10:24:00,
2013-07-14 04:29:00,56.6,53.4,29.72,West,267,5.0,7.0,89,0.00,,,0.00,0,Wunderground v.1.15,2013-07-14 10:29:00,
2013-07-14 04:34:00,56.5,53.3,29.72,West,267,5.0,7.0,89,0.00,,,0.00,0,Wunderground v.1.15,2013-07-14 10:34:00,
2013-07-14 04:39:00,56.5,53.3,29.72,West,267,3.0,7.0,89,0.00,,,0.00,0,Wunderground v.1.15,2013-07-14 10:39:00,
2013-07-14 04:44:00,56.3,53.1,29.72,West,267,2.0,6.0,89,0.00,,,0.00,0,Wunderground v.1.15,2013-07-14 10:44:00,
2013-07-14 04:49:00,56.3,53.1,29.72,West,267,0.0,6.0,89,0.00,,,0.00,0,Wunderground v.1.15,2013-07-14 10:49:00,
2013-07-14 04:55:00,56.3,53.1,29.72,West,267,0.0,1.0,89,0.00,,,0.00,0,Wunderground v.1.15,2013-07-14 10:55:00,
2013-07-14 05:00:00,56.2,53.0,29.72,West,267,0.0,0.0,89,0.00,,,0.00,0,Wunderground v.1.15,2013-07-14 11:00:00,
2013-07-14 05:05:00,56.2,53.0,29.72,West,267,0.0,0.0,89,0.00,,,0.00,0,Wunderground v.1.15,2013-07-14 11:05:00,
2013-07-14 05:10:00,56.0,52.8,29.72,West,267,0.0,0.0,89,0.00,,,0.00,0,Wunderground v.1.15,2013-07-14 11:10:00,
2013-07-14 05:16:00,56.0,52.8,29.72,West,267,0.0,0.0,89,0.00,,,0.00,0,Wunderground v.1.15,2013-07-14 11:16:00,
2013-07-14 05:21:00,55.9,52.7,29.72,West,267,0.0,0.0,89,0.00,,,0.00,0,Wunderground v.1.15,2013-07-14 11:21:00,
2013-07-14 05:26:00,55.7,52.5,29.72,West,267,0.0,0.0,89,0.00,,,0.00,0,Wunderground v.1.15,2013-07-14 11:26:00,
2013-07-14 05:31:00,55.6,52.4,29.73,West,267,0.0,0.0,89,0.00,,,0.00,0,Wunderground v.1.15,2013-07-14 11:31:00,
2013-07-14 05:36:00,55.6,52.4,29.73,West,267,0.0,0.0,89,0.00,,,0.00,0,Wunderground v.1.15,2013-07-14 11:36:00,
2013-07-14 05:41:00,55.4,52.2,29.73,West,267,0.0,0.0,89,0.00,,,0.00,0,Wunderground v.1.15,2013-07-14 11:41:00,
2013-07-14 05:46:00,55.3,52.1,29.72,West,267,0.0,0.0,89,0.00,,,0.00,0,Wunderground v.1.15,2013-07-14 11:46:00,
2013-07-14 05:51:00,55.3,52.1,29.72,West,267,0.0,0.0,89,0.00,,,0.00,0,Wunderground v.1.15,2013-07-14 11:51:00,
2013-07-14 05:56:00,55.1,51.9,29.72,West,267,0.0,0.0,89,0.00,,,0.00,0,Wunderground v.1.15,2013-07-14 11:56:00,
2013-07-14 06:01:00,55.0,51.8,29.73,West,267,0.0,0.0,89,0.00,,,0.00,5,Wunderground v.1.15,2013-07-14 12:01:00,
2013-07-14 06:07:00,54.8,51.6,29.73,West,267,0.0,0.0,89,0.00,,,0.00,7,Wunderground v.1.15,2013-07-14 12:07:00,
2013-07-14 06:12:00,54.7,51.5,29.73,West,267,0.0,0.0,89,0.00,,,0.00,9,Wunderground v.1.15,2013-07-14 12:12:00,
2013-07-14 06:17:00,54.5,51.3,29.74,West,267,0.0,0.0,89,0.00,,,0.00,12,Wunderground v.1.15,2013-07-14 12:17:00,
2013-07-14 06:22:00,54.5,51.3,29.74,West,267,0.0,0.0,89,0.00,,,0.00,14,Wunderground v.1.15,2013-07-14 12:22:00,
2013-07-14 06:27:00,54.4,51.2,29.74,West,267,0.0,0.0,89,0.00,,,0.00,33,Wunderground v.1.15,2013-07-14 12:27:00,
2013-07-14 06:32:00,54.4,51.2,29.75,West,267,0.0,0.0,89,0.00,,,0.00,49,Wunderground v.1.15,2013-07-14 12:32:00,
2013-07-14 06:37:00,54.4,51.2,29.75,West,267,0.0,0.0,89,0.00,,,0.00,19,Wunderground v.1.15,2013-07-14 12:37:00,
2013-07-14 06:42:00,54.5,51.6,29.75,West,267,0.0,0.0,90,0.00,,,0.00,70,Wunderground v.1.15,2013-07-14 12:42:00,
2013-07-14 06:47:00,54.7,51.8,29.75,West,267,0.0,0.0,90,0.00,,,0.00,90,Wunderground v.1.15,2013-07-14 12:47:00,
2013-07-14 06:52:00,54.8,51.9,29.75,West,267,0.0,0.0,90,0.00,,,0.00,98,Wunderground v.1.15,2013-07-14 12:52:00,
2013-07-14 06:57:00,55.0,52.1,29.75,West,267,0.0,0.0,90,0.00,,,0.00,67,Wunderground v.1.15,2013-07-14 12:57:00,
2013-07-14 07:02:00,55.3,52.7,29.75,NNW,330,0.0,0.0,91,0.00,,,0.00,39,Wunderground v.1.15,2013-07-14 13:02:00,
2013-07-14 07:07:00,55.4,52.8,29.75,NNW,330,0.0,0.0,91,0.00,,,0.00,33,Wunderground v.1.15,2013-07-14 13:07:00,
2013-07-14 07:13:00,55.7,53.1,29.75,NNW,330,0.0,0.0,91,0.00,,,0.00,30,Wunderground v.1.15,2013-07-14 13:13:00,
2013-07-14 07:18:00,55.7,53.1,29.75,NNW,330,0.0,0.0,91,0.00,,,0.00,30,Wunderground v.1.15,2013-07-14 13:18:00,
2013-07-14 07:23:00,55.9,53.0,29.75,NNW,330,0.0,0.0,90,0.00,,,0.00,37,Wunderground v.1.15,2013-07-14 13:23:00,
2013-07-14 07:28:00,55.9,53.0,29.75,NNW,330,0.0,0.0,90,0.00,,,0.00,93,Wunderground v.1.15,2013-07-14 13:28:00,
2013-07-14 07:33:00,56.0,53.1,29.75,NNW,330,0.0,0.0,90,0.00,,,0.00,223,Wunderground v.1.15,2013-07-14 13:33:00,
2013-07-14 07:38:00,56.5,53.6,29.75,NNW,330,0.0,0.0,90,0.00,,,0.00,234,Wunderground v.1.15,2013-07-14 13:38:00,
2013-07-14 07:44:00,56.9,54.3,29.75,NNW,330,0.0,0.0,91,0.00,,,0.00,253,Wunderground v.1.15,2013-07-14 13:44:00,
2013-07-14 07:49:00,57.5,54.6,29.75,NNW,330,0.0,0.0,90,0.00,,,0.00,262,Wunderground v.1.15,2013-07-14 13:49:00,
2013-07-14 07:55:00,58.0,54.8,29.75,NNW,330,0.0,0.0,89,0.00,,,0.00,271,Wunderground v.1.15,2013-07-14 13:55:00,
2013-07-14 08:00:00,58.4,55.2,29.75,NNW,330,0.0,0.0,89,0.00,,,0.00,292,Wunderground v.1.15,2013-07-14 14:00:00,
2013-07-14 08:05:00,59.0,55.4,29.75,NNW,330,0.0,0.0,88,0.00,,,0.00,309,Wunderground v.1.15,2013-07-14 14:05:00,
2013-07-14 08:10:00,59.6,55.4,29.75,NNW,330,0.0,0.0,86,0.00,,,0.00,332,Wunderground v.1.15,2013-07-14 14:10:00,
2013-07-14 08:15:00,60.2,56.0,29.75,NNW,330,0.0,0.0,86,0.00,,,0.00,348,Wunderground v.1.15,2013-07-14 14:15:00,
2013-07-14 08:20:00,60.9,56.0,29.75,NNW,330,0.0,0.0,84,0.00,,,0.00,364,Wunderground v.1.15,2013-07-14 14:20:00,
2013-07-14 08:26:00,61.8,56.2,29.75,NNW,330,0.0,0.0,82,0.00,,,0.00,385,Wunderground v.1.15,2013-07-14 14:26:00,
2013-07-14 08:31:00,62.4,56.1,29.74,NNW,330,0.0,0.0,80,0.00,,,0.00,401,Wunderground v.1.15,2013-07-14 14:31:00,
2013-07-14 08:36:00,63.1,55.4,29.74,NW,324,0.0,0.0,76,0.00,,,0.00,418,Wunderground v.1.15,2013-07-14 14:36:00,
2013-07-14 08:41:00,63.7,55.3,29.74,NW,324,0.0,0.0,74,0.00,,,0.00,434,Wunderground v.1.15,2013-07-14 14:41:00,
2013-07-14 08:46:00,64.7,55.8,29.74,NW,321,0.0,0.0,73,0.00,,,0.00,454,Wunderground v.1.15,2013-07-14 14:46:00,
2013-07-14 08:51:00,65.5,55.5,29.74,NW,321,0.0,0.0,70,0.00,,,0.00,468,Wunderground v.1.15,2013-07-14 14:51:00,
2013-07-14 08:56:00,66.1,55.2,29.74,NW,321,0.0,0.0,68,0.00,,,0.00,483,Wunderground v.1.15,2013-07-14 14:56:00,
2013-07-14 09:01:00,67.1,56.2,29.74,NW,321,0.0,0.0,68,0.00,,,0.00,501,Wunderground v.1.15,2013-07-14 15:01:00,
2013-07-14 09:06:00,67.8,54.3,29.74,NW,305,0.0,0.0,62,0.00,,,0.00,517,Wunderground v.1.15,2013-07-14 15:06:00,
2013-07-14 09:12:00,68.4,54.0,29.74,NW,305,0.0,0.0,60,0.00,,,0.00,533,Wunderground v.1.15,2013-07-14 15:12:00,
2013-07-14 09:16:00,69.3,54.4,29.74,NW,305,0.0,0.0,59,0.00,,,0.00,545,Wunderground v.1.15,2013-07-14 15:16:00,
2013-07-14 09:21:00,69.9,54.0,29.74,NW,305,0.0,0.0,57,0.00,,,0.00,561,Wunderground v.1.15,2013-07-14 15:21:00,
2013-07-14 09:27:00,70.8,53.8,29.74,NW,305,0.0,0.0,55,0.00,,,0.00,577,Wunderground v.1.15,2013-07-14 15:27:00,
2013-07-14 09:32:00,71.3,54.8,29.73,NW,306,0.0,0.0,56,0.00,,,0.00,591,Wunderground v.1.15,2013-07-14 15:32:00,
2013-07-14 09:37:00,71.8,54.8,29.73,NW,305,0.0,0.0,55,0.00,,,0.00,605,Wunderground v.1.15,2013-07-14 15:37:00,
2013-07-14 09:42:00,72.3,54.2,29.73,NW,306,0.0,0.0,53,0.00,,,0.00,621,Wunderground v.1.15,2013-07-14 15:42:00,
2013-07-14 09:47:00,72.8,54.1,29.73,NW,306,0.0,0.0,52,0.00,,,0.00,635,Wunderground v.1.15,2013-07-14 15:47:00,
2013-07-14 09:52:00,73.3,55.1,29.73,NW,306,0.0,0.0,53,0.00,,,0.00,650,Wunderground v.1.15,2013-07-14 15:52:00,
2013-07-14 09:57:00,73.9,55.2,29.73,NW,305,0.0,0.0,52,0.00,,,0.00,664,Wunderground v.1.15,2013-07-14 15:57:00,
2013-07-14 10:02:00,74.2,53.8,29.73,NW,306,0.0,0.0,49,0.00,,,0.00,679,Wunderground v.1.15,2013-07-14 16:02:00,
2013-07-14 10:07:00,74.6,54.7,29.73,NW,306,0.0,0.0,50,0.00,,,0.00,693,Wunderground v.1.15,2013-07-14 16:07:00,
2013-07-14 10:12:00,74.9,53.9,29.73,NW,306,0.0,0.0,48,0.00,,,0.00,705,Wunderground v.1.15,2013-07-14 16:12:00,
2013-07-14 10:17:00,75.3,54.3,29.73,NW,306,0.0,1.0,48,0.00,,,0.00,719,Wunderground v.1.15,2013-07-14 16:17:00,
2013-07-14 10:22:00,75.4,55.5,29.73,NW,306,0.0,6.0,50,0.00,,,0.00,738,Wunderground v.1.15,2013-07-14 16:22:00,
2013-07-14 10:27:00,75.4,55.5,29.73,NW,306,0.0,6.0,50,0.00,,,0.00,758,Wunderground v.1.15,2013-07-14 16:27:00,
2013-07-14 10:33:00,75.4,56.5,29.74,NW,306,2.0,9.0,52,0.00,,,0.00,802,Wunderground v.1.15,2013-07-14 16:33:00,
2013-07-14 10:38:00,75.4,57.1,29.74,WNW,297,0.0,9.0,53,0.00,,,0.00,831,Wunderground v.1.15,2013-07-14 16:38:00,
2013-07-14 10:45:00,75.8,55.8,29.73,WNW,297,0.0,2.0,50,0.00,,,0.00,550,Wunderground v.1.15,2013-07-14 16:45:00,
2013-07-14 10:50:00,75.8,55.3,29.73,WNW,297,2.0,4.0,49,0.00,,,0.00,471,Wunderground v.1.15,2013-07-14 16:50:00,
2013-07-14 10:56:00,75.6,55.6,29.73,WNW,297,1.0,4.0,50,0.00,,,0.00,512,Wunderground v.1.15,2013-07-14 16:56:00,
2013-07-14 11:01:00,75.4,55.5,29.72,WNW,297,0.0,1.0,50,0.00,,,0.00,615,Wunderground v.1.15,2013-07-14 17:01:00,
2013-07-14 11:06:00,75.4,54.9,29.72,WNW,297,3.0,5.0,49,0.00,,,0.00,691,Wunderground v.1.15,2013-07-14 17:06:00,
2013-07-14 11:11:00,75.6,56.2,29.72,WNW,297,4.0,7.0,51,0.00,,,0.00,826,Wunderground v.1.15,2013-07-14 17:11:00,
2013-07-14 11:16:00,76.1,56.1,29.72,WNW,297,1.0,7.0,50,0.00,,,0.00,986,Wunderground v.1.15,2013-07-14 17:16:00,
2013-07-14 11:21:00,76.3,54.0,29.72,WNW,297,4.0,4.0,46,0.00,,,0.00,791,Wunderground v.1.15,2013-07-14 17:21:00,
2013-07-14 11:27:00,76.7,53.8,29.72,WNW,297,1.0,4.0,45,0.00,,,0.00,770,Wunderground v.1.15,2013-07-14 17:27:00,
2013-07-14 11:32:00,77.2,57.1,29.70,WNW,297,3.0,4.0,50,0.00,,,0.00,942,Wunderground v.1.15,2013-07-14 17:32:00,
2013-07-14 11:37:00,77.6,55.8,29.70,WNW,297,5.0,5.0,47,0.00,,,0.00,888,Wunderground v.1.15,2013-07-14 17:37:00,
2013-07-14 11:43:00,78.1,57.4,29.70,WNW,297,6.0,10.0,49,0.00,,,0.00,889,Wunderground v.1.15,2013-07-14 17:43:00,
2013-07-14 11:48:00,78.6,56.1,29.70,WNW,297,0.0,10.0,46,0.00,,,0.00,896,Wunderground v.1.15,2013-07-14 17:48:00,
2013-07-14 11:53:00,78.6,54.2,29.70,WNW,297,3.0,6.0,43,0.00,,,0.00,907,Wunderground v.1.15,2013-07-14 17:53:00,
2013-07-14 11:58:00,78.8,54.4,29.70,WNW,297,3.0,7.0,43,0.00,,,0.00,909,Wunderground v.1.15,2013-07-14 17:58:00,
2013-07-14 12:05:00,79.4,57.4,29.69,WNW,297,4.0,6.0,47,0.00,,,0.00,916,Wunderground v.1.15,2013-07-14 18:05:00,
2013-07-14 12:10:00,79.9,54.8,29.69,WNW,297,4.0,4.0,42,0.00,,,0.00,923,Wunderground v.1.15,2013-07-14 18:10:00,
2013-07-14 12:15:00,80.1,54.3,29.68,WNW,297,2.0,5.0,41,0.00,,,0.00,926,Wunderground v.1.15,2013-07-14 18:15:00,
2013-07-14 12:20:00,80.7,56.1,29.68,WNW,297,2.0,2.0,43,0.00,,,0.00,930,Wunderground v.1.15,2013-07-14 18:20:00,
2013-07-14 12:25:00,81.2,56.6,29.68,WNW,297,4.0,8.0,43,0.00,,,0.00,939,Wunderground v.1.15,2013-07-14 18:25:00,
2013-07-14 12:30:00,81.6,55.6,29.68,WNW,297,2.0,3.0,41,0.00,,,0.00,940,Wunderground v.1.15,2013-07-14 18:30:00,
2013-07-14 12:36:00,81.6,55.6,29.68,WNW,297,5.0,5.0,41,0.00,,,0.00,949,Wunderground v.1.15,2013-07-14 18:36:00,
2013-07-14 12:41:00,81.6,53.5,29.68,WNW,298,0.0,2.0,38,0.00,,,0.00,954,Wunderground v.1.15,2013-07-14 18:41:00,
2013-07-14 12:46:00,81.4,54.8,29.67,WNW,298,0.0,4.0,40,0.00,,,0.00,958,Wunderground v.1.15,2013-07-14 18:46:00,
2013-07-14 12:51:00,81.8,55.8,29.67,WNW,298,0.0,1.0,41,0.00,,,0.00,963,Wunderground v.1.15,2013-07-14 18:51:00,
2013-07-14 12:56:00,82.2,54.8,29.67,WNW,298,5.0,6.0,39,0.00,,,0.00,969,Wunderground v.1.15,2013-07-14 18:56:00,
2013-07-14 13:01:00,82.6,52.2,29.66,WNW,298,0.0,3.0,35,0.00,,,0.00,976,Wunderground v.1.15,2013-07-14 19:01:00,
2013-07-14 13:07:00,83.0,55.5,29.66,WNW,298,4.0,6.0,39,0.00,,,0.00,974,Wunderground v.1.15,2013-07-14 19:07:00,
2013-07-14 13:12:00,83.6,54.6,29.66,WNW,298,5.0,7.0,37,0.00,,,0.00,979,Wunderground v.1.15,2013-07-14 19:12:00,
2013-07-14 13:17:00,83.8,52.4,29.65,WNW,298,3.0,8.0,34,0.00,,,0.00,983,Wunderground v.1.15,2013-07-14 19:17:00,
2013-07-14 13:23:00,84.1,50.2,29.65,WNW,298,2.0,8.0,31,0.00,,,0.00,998,Wunderground v.1.15,2013-07-14 19:23:00,
2013-07-14 13:28:00,84.3,52.9,29.65,WNW,298,3.0,8.0,34,0.00,,,0.00,1014,Wunderground v.1.15,2013-07-14 19:28:00,
2013-07-14 13:33:00,84.7,53.2,29.64,WNW,298,3.0,5.0,34,0.00,,,0.00,1041,Wunderground v.1.15,2013-07-14 19:33:00,
2013-07-14 13:38:00,85.1,53.6,29.64,West,268,3.0,10.0,34,0.00,,,0.00,1220,Wunderground v.1.15,2013-07-14 19:38:00,
2013-07-14 13:43:00,84.9,49.1,29.64,SSW,204,6.0,8.0,29,0.00,,,0.00,508,Wunderground v.1.15,2013-07-14 19:43:00,
2013-07-14 13:48:00,84.9,48.2,29.63,SSW,204,4.0,8.0,28,0.00,,,0.00,534,Wunderground v.1.15,2013-07-14 19:48:00,
2013-07-14 13:54:00,84.5,47.8,29.63,SSW,203,1.0,5.0,28,0.00,,,0.00,531,Wunderground v.1.15,2013-07-14 19:54:00,
2013-07-14 13:59:00,84.3,51.2,29.63,SSW,203,4.0,5.0,32,0.00,,,0.00,512,Wunderground v.1.15,2013-07-14 19:59:00,
2013-07-14 14:04:00,84.3,50.4,29.63,SSW,203,2.0,7.0,31,0.00,,,0.00,512,Wunderground v.1.15,2013-07-14 20:04:00,
2013-07-14 14:09:00,84.3,53.7,29.63,SSW,203,6.0,7.0,35,0.00,,,0.00,520,Wunderground v.1.15,2013-07-14 20:09:00,
2013-07-14 14:15:00,84.0,51.0,29.63,SSW,203,4.0,7.0,32,0.00,,,0.00,552,Wunderground v.1.15,2013-07-14 20:15:00,
2013-07-14 14:20:00,84.0,53.4,29.63,SSW,203,6.0,7.0,35,0.00,,,0.00,582,Wunderground v.1.15,2013-07-14 20:20:00,
2013-07-14 14:26:00,84.3,52.1,29.63,SSW,203,4.0,7.0,33,0.00,,,0.00,612,Wunderground v.1.15,2013-07-14 20:26:00,
2013-07-14 14:31:00,84.1,50.2,29.63,SSW,203,7.0,8.0,31,0.00,,,0.00,504,Wunderground v.1.15,2013-07-14 20:31:00,
2013-07-14 14:36:00,83.8,49.9,29.63,SSW,203,5.0,8.0,31,0.00,,,0.00,478,Wunderground v.1.15,2013-07-14 20:36:00,
2013-07-14 14:41:00,83.4,51.3,29.63,SSW,203,2.0,5.0,33,0.00,,,0.00,399,Wunderground v.1.15,2013-07-14 20:41:00,
2013-07-14 14:46:00,83.0,53.3,29.63,SSW,203,6.0,6.0,36,0.00,,,0.00,350,Wunderground v.1.15,2013-07-14 20:46:00,
2013-07-14 14:51:00,81.2,54.6,29.63,ENE,78,23.0,25.0,40,0.00,,,0.00,279,Wunderground v.1.15,2013-07-14 20:51:00,
2013-07-14 14:56:00,77.4,54.4,29.63,East,92,25.0,29.0,45,0.00,,,0.00,202,Wunderground v.1.15,2013-07-14 20:56:00,
2013-07-14 15:01:00,74.7,55.4,29.63,ENE,75,18.0,22.0,51,0.00,,,0.00,181,Wunderground v.1.15,2013-07-14 21:01:00,
2013-07-14 15:06:00,73.0,56.9,29.63,ENE,73,23.0,27.0,57,0.00,,,0.00,142,Wunderground v.1.15,2013-07-14 21:06:00,
2013-07-14 15:11:00,71.1,58.3,29.63,ENE,74,10.0,19.0,64,0.00,,,0.01,105,Wunderground v.1.15,2013-07-14 21:11:00,
2013-07-14 15:16:00,69.1,58.9,29.64,ENE,69,15.0,19.0,70,0.11,,,0.02,86,Wunderground v.1.15,2013-07-14 21:16:00,
2013-07-14 15:21:00,67.6,58.6,29.64,NE,43,12.0,16.0,73,1.71,,,0.05,60,Wunderground v.1.15,2013-07-14 21:21:00,
2013-07-14 15:26:00,65.3,58.6,29.64,ENE,62,21.0,23.0,79,2.13,,,0.24,44,Wunderground v.1.15,2013-07-14 21:26:00,
2013-07-14 15:31:00,62.9,56.3,29.65,ENE,76,7.0,21.0,79,0.70,,,0.30,33,Wunderground v.1.15,2013-07-14 21:31:00,
2013-07-14 15:36:00,62.0,57.1,29.65,NNE,28,18.0,21.0,84,0.23,,,0.32,30,Wunderground v.1.15,2013-07-14 21:36:00,
2013-07-14 15:41:00,61.3,57.1,29.65,NE,40,10.0,22.0,86,0.17,,,0.34,32,Wunderground v.1.15,2013-07-14 21:41:00,
2013-07-14 15:46:00,60.5,56.6,29.67,NNE,28,15.0,22.0,87,0.20,,,0.35,33,Wunderground v.1.15,2013-07-14 21:46:00,
2013-07-14 15:51:00,59.5,55.3,29.67,NE,41,5.0,13.0,86,0.19,,,0.37,39,Wunderground v.1.15,2013-07-14 21:51:00,
2013-07-14 15:56:00,58.7,54.8,29.67,ENE,61,6.0,13.0,87,0.20,,,0.38,54,Wunderground v.1.15,2013-07-14 21:56:00,
2013-07-14 16:01:00,58.0,54.5,29.68,ENE,71,6.0,11.0,88,0.16,,,0.40,83,Wunderground v.1.15,2013-07-14 22:01:00,
2013-07-14 16:06:00,57.6,54.4,29.68,East,79,7.0,11.0,89,0.18,,,0.41,100,Wunderground v.1.15,2013-07-14 22:06:00,
2013-07-14 16:11:00,57.8,54.9,29.68,East,79,2.0,7.0,90,0.16,,,0.43,118,Wunderground v.1.15,2013-07-14 22:11:00,
2013-07-14 16:16:00,58.1,55.5,29.67,East,79,3.0,7.0,91,0.13,,,0.44,113,Wunderground v.1.15,2013-07-14 22:16:00,
2013-07-14 16:21:00,58.3,56.0,29.67,East,79,0.0,4.0,92,0.15,,,0.45,100,Wunderground v.1.15,2013-07-14 22:21:00,
2013-07-14 16:26:00,58.3,55.7,29.67,East,79,0.0,4.0,91,0.13,,,0.46,91,Wunderground v.1.15,2013-07-14 22:26:00,
2013-07-14 16:31:00,58.1,55.8,29.65,East,79,0.0,0.0,92,0.15,,,0.47,95,Wunderground v.1.15,2013-07-14 22:31:00,
2013-07-14 16:36:00,58.6,56.3,29.65,East,79,7.0,10.0,92,0.12,,,0.48,111,Wunderground v.1.15,2013-07-14 22:36:00,
2013-07-14 16:41:00,59.2,56.9,29.65,SE,128,9.0,16.0,92,0.14,,,0.49,128,Wunderground v.1.15,2013-07-14 22:41:00,
2013-07-14 16:47:00,59.6,57.3,29.65,SE,144,12.0,16.0,92,0.11,,,0.50,146,Wunderground v.1.15,2013-07-14 22:47:00,
2013-07-14 16:52:00,59.8,57.5,29.65,SE,146,4.0,13.0,92,0.12,,,0.51,171,Wunderground v.1.15,2013-07-14 22:52:00,
2013-07-14 16:57:00,59.6,57.3,29.65,SE,138,9.0,13.0,92,0.09,,,0.52,209,Wunderground v.1.15,2013-07-14 22:57:00,
2013-07-14 17:02:00,59.5,57.2,29.66,SE,138,10.0,12.0,92,0.09,,,0.52,327,Wunderground v.1.15,2013-07-14 23:02:00,
2013-07-14 17:07:00,59.8,57.5,29.66,SE,136,8.0,12.0,92,0.05,,,0.52,573,Wunderground v.1.15,2013-07-14 23:07:00,
2013-07-14 17:12:00,60.4,58.1,29.66,SE,135,10.0,11.0,92,0.05,,,0.53,606,Wunderground v.1.15,2013-07-14 23:12:00,
2013-07-14 17:17:00,61.3,59.0,29.67,SE,134,4.0,13.0,92,0.05,,,0.53,795,Wunderground v.1.15,2013-07-14 23:17:00,
2013-07-14 17:22:00,61.8,59.1,29.67,ESE,118,6.0,16.0,91,0.04,,,0.53,582,Wunderground v.1.15,2013-07-14 23:22:00,
2013-07-14 17:27:00,62.1,59.4,29.67,ESE,118,11.0,16.0,91,0.00,,,0.53,353,Wunderground v.1.15,2013-07-14 23:27:00,
2013-07-14 17:32:00,62.1,59.1,29.67,SE,128,8.0,19.0,90,12.52,,,0.68,563,Wunderground v.1.15,2013-07-14 23:32:00,
2013-07-14 17:37:00,62.4,59.4,29.67,ESE,123,4.0,19.0,90,0.15,,,0.89,422,Wunderground v.1.15,2013-07-14 23:37:00,
2013-07-14 17:43:00,62.1,58.8,29.67,ESE,115,9.0,14.0,89,0.06,,,0.89,272,Wunderground v.1.15,2013-07-14 23:43:00,
2013-07-14 17:48:00,61.6,58.0,29.67,ESE,103,18.0,19.0,88,0.04,,,0.89,246,Wunderground v.1.15,2013-07-14 23:48:00,
2013-07-14 17:54:00,61.8,58.5,29.67,East,99,14.0,16.0,89,0.00,,,0.89,204,Wunderground v.1.15,2013-07-14 23:54:00,
2013-07-14 17:58:00,61.8,58.2,29.67,East,100,14.0,16.0,88,0.00,,,0.89,169,Wunderground v.1.15,2013-07-14 23:58:00,
2013-07-14 18:04:00,61.6,58.0,29.67,East,98,14.0,15.0,88,0.00,,,0.89,135,Wunderground v.1.15,2013-07-15 00:04:00,
2013-07-14 18:09:00,61.5,57.6,29.67,East,97,8.0,16.0,87,0.00,,,0.89,114,Wunderground v.1.15,2013-07-15 00:09:00,
2013-07-14 18:14:00,61.5,57.6,29.67,East,94,13.0,14.0,87,0.00,,,0.89,98,Wunderground v.1.15,2013-07-15 00:14:00,
2013-07-14 18:19:00,61.3,56.8,29.67,East,94,8.0,16.0,85,0.00,,,0.89,90,Wunderground v.1.15,2013-07-15 00:19:00,
2013-07-14 18:24:00,61.5,56.9,29.67,East,88,10.0,16.0,85,0.00,,,0.89,81,Wunderground v.1.15,2013-07-15 00:24:00,
2013-07-14 18:29:00,61.6,57.0,29.68,East,88,11.0,16.0,85,0.00,,,0.89,69,Wunderground v.1.15,2013-07-15 00:29:00,
2013-07-14 18:34:00,61.6,56.7,29.68,East,88,12.0,13.0,84,0.00,,,0.89,40,Wunderground v.1.15,2013-07-15 00:34:00,
2013-07-14 18:39:00,61.8,56.9,29.68,East,88,6.0,13.0,84,0.00,,,0.89,26,Wunderground v.1.15,2013-07-15 00:39:00,
2013-07-14 18:44:00,61.8,56.9,29.70,East,88,0.0,9.0,84,0.00,,,0.89,16,Wunderground v.1.15,2013-07-15 00:44:00,
2013-07-14 18:49:00,61.8,57.2,29.70,East,87,0.0,9.0,85,0.00,,,0.89,11,Wunderground v.1.15,2013-07-15 00:49:00,
2013-07-14 18:54:00,62.1,57.9,29.70,NNE,30,10.0,12.0,86,0.00,,,0.89,9,Wunderground v.1.15,2013-07-15 00:54:00,
2013-07-14 18:59:00,62.0,57.4,29.73,North,355,5.0,12.0,85,0.00,,,0.89,9,Wunderground v.1.15,2013-07-15 00:59:00,
2013-07-14 19:04:00,61.8,56.9,29.73,NNW,329,5.0,12.0,84,0.00,,,0.89,11,Wunderground v.1.15,2013-07-15 01:04:00,
2013-07-14 19:09:00,61.3,56.1,29.73,NNW,327,10.0,14.0,83,0.00,,,0.89,12,Wunderground v.1.15,2013-07-15 01:09:00,
2013-07-14 19:14:00,60.9,55.0,29.73,NW,322,1.0,11.0,81,0.00,,,0.89,11,Wunderground v.1.15,2013-07-15 01:14:00,
2013-07-14 19:19:00,60.4,54.2,29.73,NW,312,10.0,12.0,80,0.00,,,0.89,9,Wunderground v.1.15,2013-07-15 01:19:00,
2013-07-14 19:24:00,60.1,54.2,29.73,WNW,298,14.0,18.0,81,0.00,,,0.89,5,Wunderground v.1.15,2013-07-15 01:24:00,
2013-07-14 19:29:00,59.8,54.3,29.74,WNW,291,9.0,18.0,82,0.00,,,0.89,5,Wunderground v.1.15,2013-07-15 01:29:00,
2013-07-14 19:34:00,59.6,54.4,29.74,WNW,294,12.0,18.0,83,0.00,,,0.89,0,Wunderground v.1.15,2013-07-15 01:34:00,
2013-07-14 19:39:00,59.5,54.7,29.74,WNW,290,12.0,18.0,84,0.00,,,0.89,0,Wunderground v.1.15,2013-07-15 01:39:00,
2013-07-14 19:44:00,59.3,55.1,29.74,WNW,290,9.0,15.0,86,0.00,,,0.89,0,Wunderground v.1.15,2013-07-15 01:44:00,
2013-07-14 19:49:00,59.2,55.3,29.74,West,277,14.0,17.0,87,0.00,,,0.90,0,Wunderground v.1.15,2013-07-15 01:49:00,
2013-07-14 19:54:00,58.9,55.0,29.74,West,278,11.0,17.0,87,0.00,,,0.90,0,Wunderground v.1.15,2013-07-15 01:54:00,
2013-07-14 19:59:00,58.7,54.8,29.74,West,273,15.0,18.0,87,0.00,,,0.90,0,Wunderground v.1.15,2013-07-15 01:59:00,
2013-07-14 20:12:00,58.4,54.9,29.74,West,270,11.0,13.0,88,0.00,,,0.90,0,Wunderground v.1.15,2013-07-15 02:12:00,
2013-07-14 20:17:00,58.3,55.1,29.75,West,272,11.0,13.0,89,0.00,,,0.90,0,Wunderground v.1.15,2013-07-15 02:17:00,
2013-07-14 20:24:00,58.1,54.9,29.75,West,270,13.0,14.0,89,0.00,,,0.90,0,Wunderground v.1.15,2013-07-15 02:24:00,
2013-07-14 20:29:00,58.1,54.9,29.75,West,269,13.0,15.0,89,0.00,,,0.90,0,Wunderground v.1.15,2013-07-15 02:29:00,
2013-07-14 20:34:00,58.1,55.2,29.75,West,269,12.0,13.0,90,0.00,,,0.90,0,Wunderground v.1.15,2013-07-15 02:34:00,
2013-07-14 20:39:00,58.1,55.2,29.75,West,271,13.0,14.0,90,0.00,,,0.90,0,Wunderground v.1.15,2013-07-15 02:39:00,
2013-07-14 20:44:00,58.1,55.2,29.76,West,273,9.0,14.0,90,0.00,,,0.90,0,Wunderground v.1.15,2013-07-15 02:44:00,
2013-07-14 20:49:00,58.0,55.1,29.76,West,271,10.0,14.0,90,0.00,,,0.90,0,Wunderground v.1.15,2013-07-15 02:49:00,
2013-07-14 20:54:00,58.0,55.1,29.76,West,267,11.0,14.0,90,0.00,,,0.90,0,Wunderground v.1.15,2013-07-15 02:54:00,
2013-07-14 20:59:00,58.0,55.1,29.76,West,268,8.0,14.0,90,0.00,,,0.90,0,Wunderground v.1.15,2013-07-15 02:59:00,
2013-07-14 21:05:00,58.0,55.4,29.76,West,263,12.0,13.0,91,0.00,,,0.90,0,Wunderground v.1.15,2013-07-15 03:05:00,
2013-07-14 21:10:00,58.0,55.4,29.76,West,263,9.0,10.0,91,0.00,,,0.90,0,Wunderground v.1.15,2013-07-15 03:10:00,
2013-07-14 21:15:00,58.0,55.4,29.76,West,260,11.0,13.0,91,0.00,,,0.90,0,Wunderground v.1.15,2013-07-15 03:15:00,
2013-07-14 21:20:00,57.8,55.2,29.76,West,261,9.0,10.0,91,0.00,,,0.90,0,Wunderground v.1.15,2013-07-15 03:20:00,
2013-07-14 21:25:00,57.8,55.2,29.76,West,262,9.0,12.0,91,0.00,,,0.90,0,Wunderground v.1.15,2013-07-15 03:25:00,
2013-07-14 21:30:00,57.6,55.0,29.77,West,261,11.0,13.0,91,0.00,,,0.90,0,Wunderground v.1.15,2013-07-15 03:30:00,
2013-07-14 21:35:00,57.6,55.0,29.77,West,259,12.0,13.0,91,0.00,,,0.90,0,Wunderground v.1.15,2013-07-15 03:35:00,
2013-07-14 21:40:00,57.6,55.0,29.77,West,259,11.0,14.0,91,0.00,,,0.90,0,Wunderground v.1.15,2013-07-15 03:40:00,
2013-07-14 21:46:00,57.5,54.9,29.78,West,259,11.0,14.0,91,0.00,,,0.90,0,Wunderground v.1.15,2013-07-15 03:46:00,
2013-07-14 21:51:00,57.5,54.9,29.78,West,260,10.0,12.0,91,0.00,,,0.90,0,Wunderground v.1.15,2013-07-15 03:51:00,
2013-07-14 21:56:00,57.5,54.9,29.78,West,260,8.0,12.0,91,0.00,,,0.90,0,Wunderground v.1.15,2013-07-15 03:56:00,
2013-07-14 22:01:00,57.5,54.9,29.78,West,260,10.0,10.0,91,0.00,,,0.90,0,Wunderground v.1.15,2013-07-15 04:01:00,
2013-07-14 22:07:00,57.5,54.9,29.78,West,261,7.0,11.0,91,0.00,,,0.90,0,Wunderground v.1.15,2013-07-15 04:07:00,
2013-07-14 22:12:00,57.5,54.9,29.78,West,260,10.0,11.0,91,0.00,,,0.90,0,Wunderground v.1.15,2013-07-15 04:12:00,
2013-07-14 22:17:00,57.5,54.9,29.78,West,259,11.0,11.0,91,0.00,,,0.90,0,Wunderground v.1.15,2013-07-15 04:17:00,
2013-07-14 22:22:00,57.6,55.0,29.78,West,262,10.0,13.0,91,0.00,,,0.90,0,Wunderground v.1.15,2013-07-15 04:22:00,
2013-07-14 22:27:00,57.6,55.0,29.78,West,261,6.0,13.0,91,0.00,,,0.90,0,Wunderground v.1.15,2013-07-15 04:27:00,
2013-07-14 22:32:00,57.6,55.0,29.79,West,261,9.0,11.0,91,0.00,,,0.90,0,Wunderground v.1.15,2013-07-15 04:32:00,
2013-07-14 22:37:00,57.6,55.0,29.79,West,261,8.0,11.0,91,0.00,,,0.90,0,Wunderground v.1.15,2013-07-15 04:37:00,
2013-07-14 22:42:00,57.5,54.9,29.79,West,261,9.0,12.0,91,0.00,,,0.90,0,Wunderground v.1.15,2013-07-15 04:42:00,
2013-07-14 22:47:00,57.5,54.9,29.78,West,261,9.0,12.0,91,0.00,,,0.90,0,Wunderground v.1.15,2013-07-15 04:47:00,
2013-07-14 22:53:00,57.5,54.9,29.78,West,261,10.0,10.0,91,0.00,,,0.90,0,Wunderground v.1.15,2013-07-15 04:53:00,
2013-07-14 22:58:00,57.5,54.9,29.78,West,263,7.0,11.0,91,0.00,,,0.90,0,Wunderground v.1.15,2013-07-15 04:58:00,
2013-07-14 23:03:00,57.5,54.9,29.79,West,263,5.0,9.0,91,0.00,,,0.90,0,Wunderground v.1.15,2013-07-15 05:03:00,
2013-07-14 23:08:00,57.5,54.9,29.79,West,263,0.0,9.0,91,0.00,,,0.90,0,Wunderground v.1.15,2013-07-15 05:08:00,
2013-07-14 23:14:00,57.5,54.9,29.80,West,263,0.0,3.0,91,0.00,,,0.90,0,Wunderground v.1.15,2013-07-15 05:14:00,
2013-07-14 23:19:00,57.6,55.0,29.80,West,263,0.0,3.0,91,0.00,,,0.90,0,Wunderground v.1.15,2013-07-15 05:19:00,
2013-07-14 23:24:00,57.6,55.0,29.80,West,263,0.0,0.0,91,0.00,,,0.90,0,Wunderground v.1.15,2013-07-15 05:24:00,
2013-07-14 23:29:00,57.6,55.0,29.80,West,263,0.0,0.0,91,0.00,,,0.90,0,Wunderground v.1.15,2013-07-15 05:29:00,
2013-07-14 23:34:00,57.6,55.0,29.80,West,263,0.0,0.0,91,0.00,,,0.90,0,Wunderground v.1.15,2013-07-15 05:34:00,
2013-07-14 23:39:00,57.8,55.2,29.80,West,263,0.0,0.0,91,0.00,,,0.90,0,Wunderground v.1.15,2013-07-15 05:39:00,
2013-07-14 23:44:00,57.8,55.2,29.80,West,263,0.0,0.0,91,0.00,,,0.90,0,Wunderground v.1.15,2013-07-15 05:44:00,
2013-07-14 23:49:00,57.8,55.2,29.80,West,263,0.0,0.0,91,0.00,,,0.90,0,Wunderground v.1.15,2013-07-15 05:49:00,
2013-07-14 23:54:00,58.0,55.4,29.80,West,263,0.0,0.0,91,0.00,,,0.90,0,Wunderground v.1.15,2013-07-15 05:54:00,
2013-07-14 23:59:00,58.0,55.4,29.81,West,263,0.0,0.0,91,0.00,,,0.90,0,Wunderground v.1.15,2013-07-15 05:59:00,